sensor_id;sensor_type;location;lat;lon;timestamp;P1;durP1;ratioP1;P2;durP2;ratioP2
2772;SDS011;1394;47.044;15.744;2023-04-15T00:02:19;23.40;;;0.80;;
2772;SDS011;1394;47.044;15.744;2023-04-15T00:04:47;23.47;;;0.60;;
2772;SDS011;1394;47.044;15.744;2023-04-15T00:07:14;23.57;;;0.83;;
2772;SDS011;1394;47.044;15.744;2023-04-15T00:09:43;22.90;;;0.60;;
2772;SDS011;1394;47.044;15.744;2023-04-15T00:12:10;23.30;;;0.70;;
2772;SDS011;1394;47.044;15.744;2023-04-15T00:14:37;23.10;;;0.60;;
2772;SDS011;1394;47.044;15.744;2023-04-15T00:17:06;23.67;;;0.90;;
2772;SDS011;1394;47.044;15.744;2023-04-15T00:19:34;23.40;;;0.80;;
2772;SDS011;1394;47.044;15.744;2023-04-15T00:22:02;23.50;;;0.67;;
2772;SDS011;1394;47.044;15.744;2023-04-15T00:24:30;23.87;;;1.10;;
2772;SDS011;1394;47.044;15.744;2023-04-15T00:26:57;23.60;;;0.93;;
2772;SDS011;1394;47.044;15.744;2023-04-15T00:29:24;23.60;;;0.80;;
2772;SDS011;1394;47.044;15.744;2023-04-15T00:31:52;23.60;;;0.80;;
2772;SDS011;1394;47.044;15.744;2023-04-15T00:34:19;23.10;;;0.70;;
2772;SDS011;1394;47.044;15.744;2023-04-15T00:36:48;23.60;;;1.00;;
2772;SDS011;1394;47.044;15.744;2023-04-15T00:39:17;23.40;;;0.63;;
2772;SDS011;1394;47.044;15.744;2023-04-15T00:41:45;23.70;;;0.77;;
2772;SDS011;1394;47.044;15.744;2023-04-15T00:44:13;23.53;;;0.80;;
2772;SDS011;1394;47.044;15.744;2023-04-15T00:46:43;23.40;;;0.70;;
2772;SDS011;1394;47.044;15.744;2023-04-15T00:49:11;23.70;;;0.90;;
2772;SDS011;1394;47.044;15.744;2023-04-15T00:51:39;23.50;;;0.90;;
2772;SDS011;1394;47.044;15.744;2023-04-15T00:54:07;23.40;;;0.80;;
2772;SDS011;1394;47.044;15.744;2023-04-15T00:56:35;23.47;;;0.70;;
2772;SDS011;1394;47.044;15.744;2023-04-15T00:59:03;23.80;;;1.00;;
2772;SDS011;1394;47.044;15.744;2023-04-15T01:01:32;23.87;;;1.50;;
2772;SDS011;1394;47.044;15.744;2023-04-15T01:04:00;24.53;;;1.10;;
2772;SDS011;1394;47.044;15.744;2023-04-15T01:06:27;23.40;;;0.90;;
2772;SDS011;1394;47.044;15.744;2023-04-15T01:08:54;23.43;;;0.60;;
2772;SDS011;1394;47.044;15.744;2023-04-15T01:11:23;23.30;;;0.70;;
2772;SDS011;1394;47.044;15.744;2023-04-15T01:13:50;23.27;;;0.60;;
2772;SDS011;1394;47.044;15.744;2023-04-15T01:16:18;23.30;;;0.70;;
2772;SDS011;1394;47.044;15.744;2023-04-15T01:18:48;23.53;;;0.77;;
2772;SDS011;1394;47.044;15.744;2023-04-15T01:21:16;23.40;;;0.70;;
2772;SDS011;1394;47.044;15.744;2023-04-15T01:23:44;23.20;;;0.60;;
2772;SDS011;1394;47.044;15.744;2023-04-15T01:26:14;23.37;;;0.70;;
2772;SDS011;1394;47.044;15.744;2023-04-15T01:28:44;23.07;;;0.70;;
2772;SDS011;1394;47.044;15.744;2023-04-15T01:31:11;23.70;;;0.70;;
2772;SDS011;1394;47.044;15.744;2023-04-15T01:33:44;23.27;;;0.70;;
2772;SDS011;1394;47.044;15.744;2023-04-15T01:36:12;23.30;;;0.60;;
2772;SDS011;1394;47.044;15.744;2023-04-15T01:38:39;23.50;;;0.63;;
2772;SDS011;1394;47.044;15.744;2023-04-15T01:41:06;23.50;;;0.70;;
2772;SDS011;1394;47.044;15.744;2023-04-15T01:43:35;23.30;;;0.60;;
2772;SDS011;1394;47.044;15.744;2023-04-15T01:46:05;23.87;;;0.70;;
2772;SDS011;1394;47.044;15.744;2023-04-15T01:48:35;23.40;;;0.60;;
2772;SDS011;1394;47.044;15.744;2023-04-15T01:51:04;23.60;;;0.90;;
2772;SDS011;1394;47.044;15.744;2023-04-15T01:53:32;23.60;;;0.70;;
2772;SDS011;1394;47.044;15.744;2023-04-15T01:55:59;23.40;;;0.80;;
2772;SDS011;1394;47.044;15.744;2023-04-15T01:58:27;23.37;;;0.73;;
2772;SDS011;1394;47.044;15.744;2023-04-15T02:00:55;23.77;;;0.70;;
2772;SDS011;1394;47.044;15.744;2023-04-15T02:03:23;23.50;;;0.70;;
2772;SDS011;1394;47.044;15.744;2023-04-15T02:05:50;23.30;;;0.60;;
2772;SDS011;1394;47.044;15.744;2023-04-15T02:08:17;23.07;;;0.70;;
2772;SDS011;1394;47.044;15.744;2023-04-15T02:10:44;23.70;;;0.87;;
2772;SDS011;1394;47.044;15.744;2023-04-15T02:13:12;23.17;;;0.60;;
2772;SDS011;1394;47.044;15.744;2023-04-15T02:15:39;23.50;;;0.80;;
2772;SDS011;1394;47.044;15.744;2023-04-15T02:18:07;23.60;;;1.00;;
2772;SDS011;1394;47.044;15.744;2023-04-15T02:20:34;23.50;;;0.60;;
2772;SDS011;1394;47.044;15.744;2023-04-15T02:23:02;23.57;;;0.80;;
2772;SDS011;1394;47.044;15.744;2023-04-15T02:25:31;23.30;;;0.80;;
2772;SDS011;1394;47.044;15.744;2023-04-15T02:27:58;23.50;;;0.83;;
2772;SDS011;1394;47.044;15.744;2023-04-15T02:30:25;23.20;;;0.80;;
2772;SDS011;1394;47.044;15.744;2023-04-15T02:32:52;23.67;;;1.03;;
2772;SDS011;1394;47.044;15.744;2023-04-15T02:35:21;23.60;;;0.90;;
2772;SDS011;1394;47.044;15.744;2023-04-15T02:37:50;23.47;;;1.10;;
2772;SDS011;1394;47.044;15.744;2023-04-15T02:40:18;23.40;;;0.80;;
2772;SDS011;1394;47.044;15.744;2023-04-15T02:42:45;23.30;;;0.80;;
2772;SDS011;1394;47.044;15.744;2023-04-15T02:45:12;23.20;;;0.63;;
2772;SDS011;1394;47.044;15.744;2023-04-15T02:47:39;23.40;;;0.73;;
2772;SDS011;1394;47.044;15.744;2023-04-15T02:50:07;23.40;;;0.70;;
2772;SDS011;1394;47.044;15.744;2023-04-15T02:52:38;23.50;;;0.80;;
2772;SDS011;1394;47.044;15.744;2023-04-15T02:55:09;23.47;;;0.70;;
2772;SDS011;1394;47.044;15.744;2023-04-15T02:57:36;23.40;;;0.70;;
2772;SDS011;1394;47.044;15.744;2023-04-15T03:00:05;23.40;;;0.90;;
2772;SDS011;1394;47.044;15.744;2023-04-15T03:02:35;23.50;;;0.80;;
2772;SDS011;1394;47.044;15.744;2023-04-15T03:05:06;23.30;;;0.63;;
2772;SDS011;1394;47.044;15.744;2023-04-15T03:07:38;23.40;;;0.70;;
2772;SDS011;1394;47.044;15.744;2023-04-15T03:10:06;23.30;;;0.60;;
2772;SDS011;1394;47.044;15.744;2023-04-15T03:12:34;23.40;;;0.60;;
2772;SDS011;1394;47.044;15.744;2023-04-15T03:15:01;23.97;;;1.70;;
2772;SDS011;1394;47.044;15.744;2023-04-15T03:17:29;24.10;;;1.83;;
2772;SDS011;1394;47.044;15.744;2023-04-15T03:19:56;23.37;;;1.20;;
2772;SDS011;1394;47.044;15.744;2023-04-15T03:22:23;23.37;;;1.43;;
2772;SDS011;1394;47.044;15.744;2023-04-15T03:24:52;23.50;;;1.17;;
2772;SDS011;1394;47.044;15.744;2023-04-15T03:27:20;23.80;;;1.60;;
2772;SDS011;1394;47.044;15.744;2023-04-15T03:29:47;24.00;;;1.50;;
2772;SDS011;1394;47.044;15.744;2023-04-15T03:32:16;23.50;;;1.03;;
2772;SDS011;1394;47.044;15.744;2023-04-15T03:34:43;23.57;;;0.80;;
2772;SDS011;1394;47.044;15.744;2023-04-15T03:37:10;23.40;;;0.90;;
2772;SDS011;1394;47.044;15.744;2023-04-15T03:39:37;23.40;;;0.80;;
2772;SDS011;1394;47.044;15.744;2023-04-15T03:42:06;23.50;;;1.00;;
2772;SDS011;1394;47.044;15.744;2023-04-15T03:44:33;23.60;;;0.97;;
2772;SDS011;1394;47.044;15.744;2023-04-15T03:47:00;23.30;;;1.00;;
2772;SDS011;1394;47.044;15.744;2023-04-15T03:49:28;23.60;;;0.80;;
2772;SDS011;1394;47.044;15.744;2023-04-15T03:51:55;23.50;;;0.90;;
2772;SDS011;1394;47.044;15.744;2023-04-15T03:54:22;23.60;;;1.00;;
2772;SDS011;1394;47.044;15.744;2023-04-15T03:56:49;23.67;;;1.00;;
2772;SDS011;1394;47.044;15.744;2023-04-15T03:59:18;23.70;;;1.20;;
2772;SDS011;1394;47.044;15.744;2023-04-15T04:01:45;23.50;;;1.13;;
2772;SDS011;1394;47.044;15.744;2023-04-15T04:04:12;23.40;;;1.00;;
2772;SDS011;1394;47.044;15.744;2023-04-15T04:06:39;23.70;;;0.83;;
2772;SDS011;1394;47.044;15.744;2023-04-15T04:09:06;24.20;;;1.30;;
2772;SDS011;1394;47.044;15.744;2023-04-15T04:11:36;23.93;;;1.07;;
2772;SDS011;1394;47.044;15.744;2023-04-15T04:14:03;24.23;;;1.10;;
2772;SDS011;1394;47.044;15.744;2023-04-15T04:16:31;23.20;;;0.80;;
2772;SDS011;1394;47.044;15.744;2023-04-15T04:18:59;23.43;;;0.90;;
2772;SDS011;1394;47.044;15.744;2023-04-15T04:21:26;23.60;;;1.10;;
2772;SDS011;1394;47.044;15.744;2023-04-15T04:23:58;23.30;;;0.90;;
2772;SDS011;1394;47.044;15.744;2023-04-15T04:26:25;23.40;;;0.70;;
2772;SDS011;1394;47.044;15.744;2023-04-15T04:28:52;24.10;;;1.30;;
2772;SDS011;1394;47.044;15.744;2023-04-15T04:31:20;23.50;;;1.00;;
2772;SDS011;1394;47.044;15.744;2023-04-15T04:33:49;23.67;;;1.00;;
2772;SDS011;1394;47.044;15.744;2023-04-15T04:36:16;23.87;;;1.20;;
2772;SDS011;1394;47.044;15.744;2023-04-15T04:38:44;23.50;;;1.20;;
2772;SDS011;1394;47.044;15.744;2023-04-15T04:41:11;24.70;;;1.03;;
2772;SDS011;1394;47.044;15.744;2023-04-15T04:43:39;23.57;;;1.00;;
2772;SDS011;1394;47.044;15.744;2023-04-15T04:46:06;23.40;;;1.00;;
2772;SDS011;1394;47.044;15.744;2023-04-15T04:48:34;23.50;;;0.90;;
2772;SDS011;1394;47.044;15.744;2023-04-15T04:51:02;23.73;;;1.10;;
2772;SDS011;1394;47.044;15.744;2023-04-15T04:53:30;23.60;;;0.90;;
2772;SDS011;1394;47.044;15.744;2023-04-15T04:55:57;23.60;;;1.03;;
2772;SDS011;1394;47.044;15.744;2023-04-15T04:58:25;23.43;;;1.00;;
2772;SDS011;1394;47.044;15.744;2023-04-15T05:00:54;23.67;;;0.90;;
2772;SDS011;1394;47.044;15.744;2023-04-15T05:03:21;23.50;;;0.97;;
2772;SDS011;1394;47.044;15.744;2023-04-15T05:05:48;23.83;;;1.40;;
2772;SDS011;1394;47.044;15.744;2023-04-15T05:08:18;23.50;;;1.10;;
2772;SDS011;1394;47.044;15.744;2023-04-15T05:10:46;23.67;;;1.00;;
2772;SDS011;1394;47.044;15.744;2023-04-15T05:13:13;23.83;;;1.10;;
2772;SDS011;1394;47.044;15.744;2023-04-15T05:15:41;24.23;;;1.30;;
2772;SDS011;1394;47.044;15.744;2023-04-15T05:18:10;23.50;;;1.10;;
2772;SDS011;1394;47.044;15.744;2023-04-15T05:20:37;23.50;;;0.90;;
2772;SDS011;1394;47.044;15.744;2023-04-15T05:23:07;23.60;;;1.10;;
2772;SDS011;1394;47.044;15.744;2023-04-15T05:25:35;23.27;;;0.97;;
2772;SDS011;1394;47.044;15.744;2023-04-15T05:28:03;24.00;;;1.00;;
2772;SDS011;1394;47.044;15.744;2023-04-15T05:30:31;23.57;;;1.00;;
2772;SDS011;1394;47.044;15.744;2023-04-15T05:33:00;23.70;;;1.00;;
2772;SDS011;1394;47.044;15.744;2023-04-15T05:35:27;24.33;;;2.23;;
2772;SDS011;1394;47.044;15.744;2023-04-15T05:37:57;23.90;;;1.57;;
2772;SDS011;1394;47.044;15.744;2023-04-15T05:40:24;23.70;;;1.37;;
2772;SDS011;1394;47.044;15.744;2023-04-15T05:42:53;23.73;;;1.30;;
2772;SDS011;1394;47.044;15.744;2023-04-15T05:45:22;23.60;;;1.13;;
2772;SDS011;1394;47.044;15.744;2023-04-15T05:47:49;23.70;;;1.20;;
2772;SDS011;1394;47.044;15.744;2023-04-15T05:50:18;23.50;;;1.33;;
2772;SDS011;1394;47.044;15.744;2023-04-15T05:52:49;23.77;;;1.20;;
2772;SDS011;1394;47.044;15.744;2023-04-15T05:55:17;23.60;;;1.20;;
2772;SDS011;1394;47.044;15.744;2023-04-15T05:57:44;23.80;;;1.40;;
2772;SDS011;1394;47.044;15.744;2023-04-15T06:00:13;23.83;;;1.40;;
2772;SDS011;1394;47.044;15.744;2023-04-15T06:02:42;23.80;;;1.23;;
2772;SDS011;1394;47.044;15.744;2023-04-15T06:05:09;23.80;;;1.40;;
2772;SDS011;1394;47.044;15.744;2023-04-15T06:07:38;24.10;;;1.90;;
2772;SDS011;1394;47.044;15.744;2023-04-15T06:10:08;23.73;;;1.60;;
2772;SDS011;1394;47.044;15.744;2023-04-15T06:12:37;23.87;;;1.53;;
2772;SDS011;1394;47.044;15.744;2023-04-15T06:15:05;25.27;;;1.60;;
2772;SDS011;1394;47.044;15.744;2023-04-15T06:17:36;24.00;;;1.40;;
2772;SDS011;1394;47.044;15.744;2023-04-15T06:20:03;23.70;;;2.00;;
2772;SDS011;1394;47.044;15.744;2023-04-15T06:22:32;24.30;;;1.80;;
2772;SDS011;1394;47.044;15.744;2023-04-15T06:24:59;23.77;;;1.40;;
2772;SDS011;1394;47.044;15.744;2023-04-15T06:27:26;23.60;;;1.60;;
2772;SDS011;1394;47.044;15.744;2023-04-15T06:29:57;23.60;;;1.70;;
2772;SDS011;1394;47.044;15.744;2023-04-15T06:32:25;24.07;;;1.70;;
2772;SDS011;1394;47.044;15.744;2023-04-15T06:34:53;23.90;;;1.50;;
2772;SDS011;1394;47.044;15.744;2023-04-15T06:37:25;23.80;;;1.50;;
2772;SDS011;1394;47.044;15.744;2023-04-15T06:39:52;23.70;;;1.40;;
2772;SDS011;1394;47.044;15.744;2023-04-15T06:42:24;23.60;;;1.70;;
2772;SDS011;1394;47.044;15.744;2023-04-15T06:44:52;23.83;;;1.33;;
2772;SDS011;1394;47.044;15.744;2023-04-15T06:47:19;23.97;;;1.37;;
2772;SDS011;1394;47.044;15.744;2023-04-15T06:49:48;23.80;;;1.40;;
2772;SDS011;1394;47.044;15.744;2023-04-15T06:52:16;24.07;;;1.50;;
2772;SDS011;1394;47.044;15.744;2023-04-15T06:54:43;23.60;;;1.40;;
2772;SDS011;1394;47.044;15.744;2023-04-15T06:57:12;23.90;;;1.63;;
2772;SDS011;1394;47.044;15.744;2023-04-15T06:59:39;23.83;;;1.50;;
2772;SDS011;1394;47.044;15.744;2023-04-15T07:02:10;24.17;;;2.00;;
2772;SDS011;1394;47.044;15.744;2023-04-15T07:04:38;23.83;;;1.40;;
2772;SDS011;1394;47.044;15.744;2023-04-15T07:07:06;23.80;;;1.30;;
2772;SDS011;1394;47.044;15.744;2023-04-15T07:09:35;23.83;;;1.53;;
2772;SDS011;1394;47.044;15.744;2023-04-15T07:12:03;23.60;;;1.37;;
2772;SDS011;1394;47.044;15.744;2023-04-15T07:14:30;23.50;;;1.50;;
2772;SDS011;1394;47.044;15.744;2023-04-15T07:16:58;24.50;;;1.60;;
2772;SDS011;1394;47.044;15.744;2023-04-15T07:19:28;24.07;;;1.60;;
2772;SDS011;1394;47.044;15.744;2023-04-15T07:21:55;24.00;;;1.53;;
2772;SDS011;1394;47.044;15.744;2023-04-15T07:24:23;24.40;;;1.70;;
2772;SDS011;1394;47.044;15.744;2023-04-15T07:26:52;24.07;;;1.63;;
2772;SDS011;1394;47.044;15.744;2023-04-15T07:29:20;23.70;;;1.60;;
2772;SDS011;1394;47.044;15.744;2023-04-15T07:31:48;23.67;;;1.17;;
2772;SDS011;1394;47.044;15.744;2023-04-15T07:34:15;24.17;;;1.20;;
2772;SDS011;1394;47.044;15.744;2023-04-15T07:36:43;23.90;;;1.50;;
2772;SDS011;1394;47.044;15.744;2023-04-15T07:39:14;23.77;;;1.23;;
2772;SDS011;1394;47.044;15.744;2023-04-15T07:41:43;23.70;;;1.20;;
2772;SDS011;1394;47.044;15.744;2023-04-15T07:44:14;23.60;;;1.30;;
2772;SDS011;1394;47.044;15.744;2023-04-15T07:46:43;23.83;;;1.10;;
2772;SDS011;1394;47.044;15.744;2023-04-15T07:49:10;23.63;;;1.10;;
2772;SDS011;1394;47.044;15.744;2023-04-15T07:51:39;23.87;;;1.10;;
2772;SDS011;1394;47.044;15.744;2023-04-15T07:54:09;23.60;;;1.10;;
2772;SDS011;1394;47.044;15.744;2023-04-15T07:56:39;23.80;;;1.20;;
2772;SDS011;1394;47.044;15.744;2023-04-15T07:59:06;23.60;;;1.10;;
2772;SDS011;1394;47.044;15.744;2023-04-15T08:01:36;23.80;;;1.13;;
2772;SDS011;1394;47.044;15.744;2023-04-15T08:04:05;23.80;;;1.10;;
2772;SDS011;1394;47.044;15.744;2023-04-15T08:06:35;23.77;;;1.27;;
2772;SDS011;1394;47.044;15.744;2023-04-15T08:09:05;24.03;;;1.20;;
2772;SDS011;1394;47.044;15.744;2023-04-15T08:11:33;24.07;;;1.20;;
2772;SDS011;1394;47.044;15.744;2023-04-15T08:14:06;24.00;;;1.30;;
2772;SDS011;1394;47.044;15.744;2023-04-15T08:16:33;23.97;;;1.30;;
2772;SDS011;1394;47.044;15.744;2023-04-15T08:19:07;23.87;;;1.30;;
2772;SDS011;1394;47.044;15.744;2023-04-15T08:21:35;23.77;;;1.13;;
2772;SDS011;1394;47.044;15.744;2023-04-15T08:24:03;24.10;;;1.40;;
2772;SDS011;1394;47.044;15.744;2023-04-15T08:26:30;23.90;;;1.30;;
2772;SDS011;1394;47.044;15.744;2023-04-15T08:28:58;23.80;;;1.23;;
2772;SDS011;1394;47.044;15.744;2023-04-15T08:31:26;24.47;;;1.13;;
2772;SDS011;1394;47.044;15.744;2023-04-15T08:33:54;24.00;;;1.60;;
2772;SDS011;1394;47.044;15.744;2023-04-15T08:36:25;24.20;;;1.60;;
2772;SDS011;1394;47.044;15.744;2023-04-15T08:38:53;24.00;;;1.40;;
2772;SDS011;1394;47.044;15.744;2023-04-15T08:41:21;24.60;;;2.10;;
2772;SDS011;1394;47.044;15.744;2023-04-15T08:43:53;24.30;;;2.10;;
2772;SDS011;1394;47.044;15.744;2023-04-15T08:46:24;24.00;;;1.30;;
2772;SDS011;1394;47.044;15.744;2023-04-15T08:48:51;23.80;;;1.10;;
2772;SDS011;1394;47.044;15.744;2023-04-15T08:51:25;24.57;;;1.50;;
2772;SDS011;1394;47.044;15.744;2023-04-15T08:53:54;24.80;;;1.27;;
2772;SDS011;1394;47.044;15.744;2023-04-15T08:56:22;23.70;;;1.40;;
2772;SDS011;1394;47.044;15.744;2023-04-15T08:58:51;24.53;;;1.40;;
2772;SDS011;1394;47.044;15.744;2023-04-15T09:01:20;24.07;;;1.50;;
2772;SDS011;1394;47.044;15.744;2023-04-15T09:03:49;23.97;;;1.20;;
2772;SDS011;1394;47.044;15.744;2023-04-15T09:06:19;23.70;;;1.20;;
2772;SDS011;1394;47.044;15.744;2023-04-15T09:08:50;23.93;;;1.27;;
2772;SDS011;1394;47.044;15.744;2023-04-15T09:11:20;23.60;;;1.00;;
2772;SDS011;1394;47.044;15.744;2023-04-15T09:13:50;24.33;;;1.30;;
2772;SDS011;1394;47.044;15.744;2023-04-15T09:16:17;23.70;;;1.10;;
2772;SDS011;1394;47.044;15.744;2023-04-15T09:18:45;23.20;;;1.00;;
2772;SDS011;1394;47.044;15.744;2023-04-15T09:21:14;24.00;;;1.20;;
2772;SDS011;1394;47.044;15.744;2023-04-15T09:23:56;24.13;;;1.07;;
2772;SDS011;1394;47.044;15.744;2023-04-15T09:26:34;24.07;;;1.20;;
2772;SDS011;1394;47.044;15.744;2023-04-15T09:29:05;23.70;;;1.00;;
2772;SDS011;1394;47.044;15.744;2023-04-15T09:31:33;23.60;;;0.90;;
2772;SDS011;1394;47.044;15.744;2023-04-15T09:34:01;23.70;;;1.10;;
2772;SDS011;1394;47.044;15.744;2023-04-15T09:36:35;23.80;;;1.30;;
2772;SDS011;1394;47.044;15.744;2023-04-15T09:39:08;23.87;;;1.13;;
2772;SDS011;1394;47.044;15.744;2023-04-15T09:41:35;23.70;;;0.90;;
2772;SDS011;1394;47.044;15.744;2023-04-15T09:44:02;24.33;;;1.50;;
2772;SDS011;1394;47.044;15.744;2023-04-15T09:46:39;24.00;;;1.20;;
2772;SDS011;1394;47.044;15.744;2023-04-15T09:49:07;24.50;;;1.50;;
2772;SDS011;1394;47.044;15.744;2023-04-15T09:51:37;23.87;;;1.23;;
2772;SDS011;1394;47.044;15.744;2023-04-15T09:54:06;24.07;;;1.20;;
2772;SDS011;1394;47.044;15.744;2023-04-15T09:56:36;24.10;;;1.23;;
2772;SDS011;1394;47.044;15.744;2023-04-15T09:59:06;23.90;;;1.30;;
2772;SDS011;1394;47.044;15.744;2023-04-15T10:01:35;23.90;;;1.00;;
2772;SDS011;1394;47.044;15.744;2023-04-15T10:04:03;24.23;;;1.30;;
2772;SDS011;1394;47.044;15.744;2023-04-15T10:06:32;23.87;;;1.30;;
2772;SDS011;1394;47.044;15.744;2023-04-15T10:09:01;24.03;;;1.30;;
2772;SDS011;1394;47.044;15.744;2023-04-15T10:11:31;24.00;;;1.40;;
2772;SDS011;1394;47.044;15.744;2023-04-15T10:13:59;24.00;;;1.27;;
2772;SDS011;1394;47.044;15.744;2023-04-15T10:16:27;24.00;;;1.40;;
2772;SDS011;1394;47.044;15.744;2023-04-15T10:18:55;23.80;;;1.20;;
2772;SDS011;1394;47.044;15.744;2023-04-15T10:21:23;23.97;;;1.60;;
2772;SDS011;1394;47.044;15.744;2023-04-15T10:23:51;23.80;;;1.20;;
2772;SDS011;1394;47.044;15.744;2023-04-15T10:26:19;24.00;;;1.13;;
2772;SDS011;1394;47.044;15.744;2023-04-15T10:28:48;24.27;;;1.27;;
2772;SDS011;1394;47.044;15.744;2023-04-15T10:31:16;24.03;;;1.50;;
2772;SDS011;1394;47.044;15.744;2023-04-15T10:33:44;24.37;;;1.60;;
2772;SDS011;1394;47.044;15.744;2023-04-15T10:36:14;24.20;;;1.40;;
2772;SDS011;1394;47.044;15.744;2023-04-15T10:38:48;23.83;;;1.20;;
2772;SDS011;1394;47.044;15.744;2023-04-15T10:41:16;23.90;;;1.30;;
2772;SDS011;1394;47.044;15.744;2023-04-15T10:43:50;23.70;;;1.10;;
2772;SDS011;1394;47.044;15.744;2023-04-15T10:46:19;24.00;;;1.00;;
2772;SDS011;1394;47.044;15.744;2023-04-15T10:48:48;24.00;;;1.50;;
2772;SDS011;1394;47.044;15.744;2023-04-15T10:51:15;24.00;;;1.20;;
2772;SDS011;1394;47.044;15.744;2023-04-15T10:53:46;23.90;;;1.20;;
2772;SDS011;1394;47.044;15.744;2023-04-15T10:56:13;24.20;;;1.37;;
2772;SDS011;1394;47.044;15.744;2023-04-15T10:58:43;23.90;;;1.23;;
2772;SDS011;1394;47.044;15.744;2023-04-15T11:01:12;24.00;;;1.20;;
2772;SDS011;1394;47.044;15.744;2023-04-15T11:03:41;24.10;;;1.50;;
2772;SDS011;1394;47.044;15.744;2023-04-15T11:06:09;23.87;;;1.30;;
2772;SDS011;1394;47.044;15.744;2023-04-15T11:11:23;23.97;;;1.27;;
2772;SDS011;1394;47.044;15.744;2023-04-15T11:14:13;23.93;;;1.33;;
2772;SDS011;1394;47.044;15.744;2023-04-15T11:16:51;24.13;;;1.00;;
2772;SDS011;1394;47.044;15.744;2023-04-15T11:19:19;23.40;;;1.00;;
2772;SDS011;1394;47.044;15.744;2023-04-15T11:21:47;23.80;;;0.90;;
2772;SDS011;1394;47.044;15.744;2023-04-15T11:24:22;24.53;;;1.20;;
2772;SDS011;1394;47.044;15.744;2023-04-15T11:26:56;24.20;;;1.40;;
2772;SDS011;1394;47.044;15.744;2023-04-15T11:29:28;23.93;;;1.10;;
2772;SDS011;1394;47.044;15.744;2023-04-15T11:32:07;24.00;;;1.00;;
2772;SDS011;1394;47.044;15.744;2023-04-15T11:34:38;24.47;;;1.00;;
2772;SDS011;1394;47.044;15.744;2023-04-15T11:37:06;23.83;;;1.13;;
2772;SDS011;1394;47.044;15.744;2023-04-15T11:39:35;23.70;;;1.10;;
2772;SDS011;1394;47.044;15.744;2023-04-15T11:42:03;23.63;;;0.80;;
2772;SDS011;1394;47.044;15.744;2023-04-15T11:44:44;23.80;;;1.10;;
2772;SDS011;1394;47.044;15.744;2023-04-15T11:47:22;24.20;;;1.20;;
2772;SDS011;1394;47.044;15.744;2023-04-15T11:49:49;23.83;;;0.73;;
2772;SDS011;1394;47.044;15.744;2023-04-15T11:52:17;24.10;;;0.97;;
2772;SDS011;1394;47.044;15.744;2023-04-15T11:54:44;23.90;;;0.80;;
2772;SDS011;1394;47.044;15.744;2023-04-15T11:57:14;23.70;;;0.90;;
2772;SDS011;1394;47.044;15.744;2023-04-15T11:59:43;24.73;;;1.30;;
2772;SDS011;1394;47.044;15.744;2023-04-15T12:02:13;24.00;;;1.10;;
2772;SDS011;1394;47.044;15.744;2023-04-15T12:04:43;23.87;;;1.10;;
2772;SDS011;1394;47.044;15.744;2023-04-15T12:07:12;24.30;;;1.20;;
2772;SDS011;1394;47.044;15.744;2023-04-15T12:09:42;23.90;;;1.10;;
2772;SDS011;1394;47.044;15.744;2023-04-15T12:12:09;24.23;;;1.10;;
2772;SDS011;1394;47.044;15.744;2023-04-15T12:14:39;23.90;;;1.00;;
2772;SDS011;1394;47.044;15.744;2023-04-15T12:17:09;24.27;;;0.90;;
2772;SDS011;1394;47.044;15.744;2023-04-15T12:19:38;23.90;;;0.80;;
2772;SDS011;1394;47.044;15.744;2023-04-15T12:22:10;24.13;;;0.90;;
2772;SDS011;1394;47.044;15.744;2023-04-15T12:24:39;24.00;;;0.73;;
2772;SDS011;1394;47.044;15.744;2023-04-15T12:27:08;24.10;;;0.80;;
2772;SDS011;1394;47.044;15.744;2023-04-15T12:29:37;24.33;;;0.80;;
2772;SDS011;1394;47.044;15.744;2023-04-15T12:32:07;23.80;;;0.70;;
2772;SDS011;1394;47.044;15.744;2023-04-15T12:34:36;24.00;;;0.90;;
2772;SDS011;1394;47.044;15.744;2023-04-15T12:37:05;24.00;;;0.80;;
2772;SDS011;1394;47.044;15.744;2023-04-15T12:39:39;24.10;;;0.87;;
2772;SDS011;1394;47.044;15.744;2023-04-15T12:42:08;24.70;;;0.80;;
2772;SDS011;1394;47.044;15.744;2023-04-15T12:44:37;23.93;;;0.80;;
2772;SDS011;1394;47.044;15.744;2023-04-15T12:47:05;23.97;;;0.87;;
2772;SDS011;1394;47.044;15.744;2023-04-15T12:49:33;23.80;;;0.80;;
2772;SDS011;1394;47.044;15.744;2023-04-15T12:52:03;23.90;;;0.70;;
2772;SDS011;1394;47.044;15.744;2023-04-15T12:54:33;23.80;;;0.60;;
2772;SDS011;1394;47.044;15.744;2023-04-15T12:57:03;23.90;;;0.80;;
2772;SDS011;1394;47.044;15.744;2023-04-15T12:59:30;23.70;;;0.60;;
2772;SDS011;1394;47.044;15.744;2023-04-15T13:01:57;23.70;;;0.50;;
2772;SDS011;1394;47.044;15.744;2023-04-15T13:04:28;24.80;;;0.80;;
2772;SDS011;1394;47.044;15.744;2023-04-15T13:06:55;23.80;;;0.70;;
2772;SDS011;1394;47.044;15.744;2023-04-15T13:09:23;23.90;;;0.70;;
2772;SDS011;1394;47.044;15.744;2023-04-15T13:11:53;23.70;;;0.60;;
2772;SDS011;1394;47.044;15.744;2023-04-15T13:14:23;23.67;;;0.60;;
2772;SDS011;1394;47.044;15.744;2023-04-15T13:16:51;23.70;;;0.70;;
2772;SDS011;1394;47.044;15.744;2023-04-15T13:19:19;24.30;;;0.80;;
2772;SDS011;1394;47.044;15.744;2023-04-15T13:21:48;23.80;;;0.60;;
2772;SDS011;1394;47.044;15.744;2023-04-15T13:24:17;23.70;;;0.60;;
2772;SDS011;1394;47.044;15.744;2023-04-15T13:26:44;23.80;;;0.80;;
2772;SDS011;1394;47.044;15.744;2023-04-15T13:29:18;23.70;;;0.70;;
2772;SDS011;1394;47.044;15.744;2023-04-15T13:31:50;23.77;;;0.60;;
2772;SDS011;1394;47.044;15.744;2023-04-15T13:34:17;23.90;;;0.60;;
2772;SDS011;1394;47.044;15.744;2023-04-15T13:36:50;24.43;;;0.70;;
2772;SDS011;1394;47.044;15.744;2023-04-15T13:39:18;23.83;;;0.70;;
2772;SDS011;1394;47.044;15.744;2023-04-15T13:41:45;23.80;;;0.80;;
2772;SDS011;1394;47.044;15.744;2023-04-15T13:44:15;24.00;;;0.80;;
2772;SDS011;1394;47.044;15.744;2023-04-15T13:46:45;24.17;;;0.73;;
2772;SDS011;1394;47.044;15.744;2023-04-15T13:49:19;23.70;;;0.80;;
2772;SDS011;1394;47.044;15.744;2023-04-15T13:51:49;23.80;;;0.70;;
2772;SDS011;1394;47.044;15.744;2023-04-15T13:54:19;23.60;;;0.73;;
2772;SDS011;1394;47.044;15.744;2023-04-15T13:56:48;23.43;;;0.80;;
2772;SDS011;1394;47.044;15.744;2023-04-15T13:59:19;23.67;;;0.60;;
2772;SDS011;1394;47.044;15.744;2023-04-15T14:01:46;23.87;;;0.70;;
2772;SDS011;1394;47.044;15.744;2023-04-15T14:04:14;23.80;;;0.70;;
2772;SDS011;1394;47.044;15.744;2023-04-15T14:06:42;23.97;;;0.90;;
2772;SDS011;1394;47.044;15.744;2023-04-15T14:09:10;23.93;;;0.90;;
2772;SDS011;1394;47.044;15.744;2023-04-15T14:11:37;23.80;;;0.77;;
2772;SDS011;1394;47.044;15.744;2023-04-15T14:14:05;23.80;;;0.73;;
2772;SDS011;1394;47.044;15.744;2023-04-15T14:16:34;24.17;;;0.70;;
2772;SDS011;1394;47.044;15.744;2023-04-15T14:19:05;23.47;;;0.77;;
2772;SDS011;1394;47.044;15.744;2023-04-15T14:21:34;23.90;;;0.90;;
2772;SDS011;1394;47.044;15.744;2023-04-15T14:24:03;23.90;;;0.83;;
2772;SDS011;1394;47.044;15.744;2023-04-15T14:26:30;23.90;;;0.80;;
2772;SDS011;1394;47.044;15.744;2023-04-15T14:28:58;24.40;;;1.70;;
2772;SDS011;1394;47.044;15.744;2023-04-15T14:31:25;23.80;;;1.10;;
2772;SDS011;1394;47.044;15.744;2023-04-15T14:33:55;23.67;;;0.90;;
2772;SDS011;1394;47.044;15.744;2023-04-15T14:36:25;23.80;;;0.83;;
2772;SDS011;1394;47.044;15.744;2023-04-15T14:38:55;26.77;;;1.40;;
2772;SDS011;1394;47.044;15.744;2023-04-15T14:41:29;23.63;;;0.60;;
2772;SDS011;1394;47.044;15.744;2023-04-15T14:43:56;23.70;;;0.70;;
2772;SDS011;1394;47.044;15.744;2023-04-15T14:46:25;23.60;;;0.60;;
2772;SDS011;1394;47.044;15.744;2023-04-15T14:48:54;23.60;;;0.70;;
2772;SDS011;1394;47.044;15.744;2023-04-15T14:51:21;23.70;;;0.70;;
2772;SDS011;1394;47.044;15.744;2023-04-15T14:53:48;23.50;;;0.60;;
2772;SDS011;1394;47.044;15.744;2023-04-15T14:56:16;23.50;;;0.50;;
2772;SDS011;1394;47.044;15.744;2023-04-15T14:58:47;23.60;;;0.60;;
2772;SDS011;1394;47.044;15.744;2023-04-15T15:01:17;23.70;;;0.70;;